Stations météo

réclame
Mon MeteoGroup
Alto De Los Leones, Espagne (8217): Température de l'air & dewpoint: 18.04.2018 10:00:00 - 24.04.2018 10:00:00 (CEST)Alto De Los Leones, Espagne (8217): Vitesse du vent & gusts: 18.04.2018 10:00:00 - 24.04.2018 10:00:00 (CEST)Alto De Los Leones, Espagne (8217): Direction du vent: 18.04.2018 10:00:00 - 24.04.2018 10:00:00 (CEST)Alto De Los Leones, Espagne (8217): Quantités de précipitations: 18.04.2018 10:00:00 - 24.04.2018 10:00:00 (CEST)
Date & Time tt [°C] td [°C] ff [km/h] ff [knt] fx [km/h] fx [knt] dd rr [mm]
24.04.2018 10:00:00 - - - - - - - -
24.04.2018 09:00:00 12,1 1,9 14 7 21 11 WSW 0,0
24.04.2018 08:00:00 10,0 1,9 13 7 22 12 WSW -
24.04.2018 07:00:00 9,2 2,3 12 7 18 10 WSW 0,0
24.04.2018 06:00:00 10,0 2,1 13 7 24 13 WSW 0,0
24.04.2018 05:00:00 10,5 2,7 14 8 22 12 WSW 0,0
24.04.2018 04:00:00 10,3 2,9 14 7 20 11 WSW 0,0
24.04.2018 03:00:00 10,0 2,9 11 6 21 11 WSW 0,0
24.04.2018 02:00:00 10,2 2,9 12 7 20 11 WSW -
24.04.2018 01:00:00 10,9 2,7 13 7 23 13 WSW 0,0
24.04.2018 00:00:00 11,7 2,1 16 9 32 17 WSW 0,0
23.04.2018 23:00:00 12,4 1,1 16 9 28 15 WSW 0,0
23.04.2018 22:00:00 12,8 1,5 13 7 21 11 WSW 0,0
23.04.2018 21:00:00 12,8 0,9 11 6 20 11 WSW 0,0
23.04.2018 20:00:00 14,0 0,6 13 7 30 16 WSW -
23.04.2018 19:00:00 15,8 0,4 16 9 33 18 WSW 0,0
23.04.2018 18:00:00 16,6 1,1 12 6 26 14 WSW 0,0
23.04.2018 17:00:00 16,5 0,6 15 8 29 16 WSW 0,0
23.04.2018 16:00:00 16,0 1,7 17 9 34 18 WSW 0,0
23.04.2018 15:00:00 14,9 1,1 16 9 32 17 WSW 0,0
23.04.2018 14:00:00 14,7 0,9 18 10 31 17 WSW -
23.04.2018 13:00:00 16,1 1,7 13 7 24 13 WSW 0,0
23.04.2018 12:00:00 15,0 1,9 6 4 13 7 WSW 0,0
23.04.2018 11:00:00 12,3 1,9 5 3 20 11 WSW 0,0
23.04.2018 10:00:00 10,2 0,9 12 7 32 17 WSW 0,0
23.04.2018 09:00:00 9,6 0,2 17 9 34 18 WSW 0,0
23.04.2018 08:00:00 8,3 0,0 14 7 23 12 WSW -
23.04.2018 07:00:00 7,9 -1,4 16 9 27 14 WSW 0,0
23.04.2018 06:00:00 7,8 -1,2 18 10 32 17 WSW 0,0
23.04.2018 05:00:00 8,7 0,2 20 11 32 18 WSW 0,0
23.04.2018 04:00:00 9,1 0,9 21 11 34 19 WSW 0,0
23.04.2018 03:00:00 9,7 1,9 21 11 32 18 WSW 0,0
23.04.2018 02:00:00 10,3 2,5 21 11 31 17 WSW -
23.04.2018 01:00:00 10,4 2,1 21 11 33 18 WSW 0,0
23.04.2018 00:00:00 10,7 2,1 20 11 31 17 WSW 0,0
22.04.2018 23:00:00 10,9 1,9 20 11 27 14 WSW 0,0
22.04.2018 22:00:00 11,1 2,7 13 7 23 12 WSW 0,0
22.04.2018 21:00:00 11,6 2,3 15 8 22 12 WSW 0,0
22.04.2018 20:00:00 11,3 4,8 10 5 22 12 WSW -
22.04.2018 19:00:00 13,1 1,5 5 3 18 10 WSW 0,0
22.04.2018 18:00:00 13,1 1,7 12 6 24 13 WSW 0,0
22.04.2018 17:00:00 12,6 1,1 15 8 27 15 WSW 0,0
22.04.2018 16:00:00 13,2 1,5 14 7 26 14 WSW 0,0
22.04.2018 15:00:00 13,4 1,1 16 9 33 18 WSW 0,0
22.04.2018 14:00:00 14,8 0,2 11 6 22 12 WSW -
22.04.2018 13:00:00 14,0 2,3 10 6 22 12 WSW 0,0
22.04.2018 12:00:00 13,1 3,8 3 1 16 8 WSW 0,0
22.04.2018 11:00:00 10,7 3,8 10 5 17 9 WSW 0,0
22.04.2018 10:00:00 8,9 3,8 11 6 17 9 WSW 0,0
22.04.2018 09:00:00 9,5 4,1 2 1 8 4 WSW 0,0
22.04.2018 08:00:00 6,3 3,0 6 4 16 9 WSW -
22.04.2018 07:00:00 7,6 1,9 10 6 14 7 WSW 0,0
22.04.2018 06:00:00 7,6 2,5 6 3 19 10 WSW 0,0
22.04.2018 05:00:00 7,1 2,7 9 5 23 13 WSW 0,0
22.04.2018 04:00:00 7,6 2,3 14 7 26 14 WSW 0,0
22.04.2018 03:00:00 8,1 2,1 16 9 35 19 WSW 0,0
22.04.2018 02:00:00 8,6 1,9 24 13 35 19 WSW -
22.04.2018 01:00:00 8,5 1,5 24 13 34 19 WSW 0,0
22.04.2018 00:00:00 8,6 1,1 22 12 32 17 WSW 0,0
21.04.2018 23:00:00 9,3 1,1 18 10 24 13 WSW 0,0
21.04.2018 22:00:00 9,3 1,1 16 8 24 13 WSW 0,0
21.04.2018 21:00:00 9,1 0,9 14 8 29 16 WSW 0,0
21.04.2018 20:00:00 9,8 0,6 18 10 36 19 WSW -
21.04.2018 19:00:00 10,1 0,6 23 12 40 22 WSW 0,0
21.04.2018 18:00:00 11,2 0,9 23 12 41 22 WSW 0,0
21.04.2018 17:00:00 10,1 0,2 27 15 45 24 WSW 0,0
21.04.2018 16:00:00 9,6 -0,7 27 15 50 27 WSW 0,0
21.04.2018 15:00:00 9,1 0,0 23 12 39 21 WSW 0,0
21.04.2018 14:00:00 8,3 0,0 18 10 34 19 WSW -
21.04.2018 13:00:00 7,7 1,1 24 13 40 21 WSW 0,0
21.04.2018 12:00:00 7,5 1,5 25 13 41 22 WSW 0,0
21.04.2018 11:00:00 6,5 1,7 27 15 43 23 WSW 0,0
21.04.2018 10:00:00 6,3 1,3 26 14 46 25 SW 0,0
21.04.2018 09:00:00 6,0 1,1 29 16 42 23 WSW 0,0
21.04.2018 08:00:00 4,8 1,1 29 15 43 23 WSW -
21.04.2018 07:00:00 4,3 1,3 28 15 42 23 WSW 0,0
21.04.2018 06:00:00 4,7 1,3 29 16 42 23 WSW 0,0
21.04.2018 05:00:00 5,0 1,1 28 15 50 27 WSW 0,0
21.04.2018 04:00:00 5,6 0,9 31 17 49 26 WSW 0,0
21.04.2018 03:00:00 6,2 0,9 27 15 46 25 SW 0,0
21.04.2018 02:00:00 6,4 1,1 28 15 46 25 WSW -
21.04.2018 01:00:00 6,9 1,3 27 15 46 25 WSW 0,0
21.04.2018 00:00:00 7,3 1,5 27 14 48 26 WSW 0,0
20.04.2018 23:00:00 7,1 0,6 26 14 50 27 WSW 0,0
20.04.2018 22:00:00 8,1 -0,3 26 14 52 28 WSW 0,0
20.04.2018 21:00:00 9,2 -0,7 26 14 44 24 WSW 0,0
20.04.2018 20:00:00 10,9 -0,5 25 14 49 27 WSW -
20.04.2018 19:00:00 12,5 -0,7 29 15 51 28 WSW 0,0
20.04.2018 18:00:00 12,2 -0,7 27 14 53 28 WSW 0,0
20.04.2018 17:00:00 11,7 -1,4 32 17 57 31 WSW 0,0
20.04.2018 16:00:00 10,7 -0,5 30 16 55 30 WSW 0,0
20.04.2018 15:00:00 11,9 0,4 29 16 55 30 WSW 0,0
20.04.2018 14:00:00 10,1 0,2 23 12 57 31 SW -
20.04.2018 13:00:00 9,1 -0,5 12 7 53 29 WSW 0,0
20.04.2018 12:00:00 7,9 1,3 14 8 49 26 NE 0,0
20.04.2018 11:00:00 6,6 1,5 6 3 45 25 SW 0,0
20.04.2018 10:00:00 5,9 2,1 3 2 48 26 NE 0,0
20.04.2018 09:00:00 6,0 1,9 6 3 45 24 ESE 0,0
20.04.2018 08:00:00 5,0 1,9 12 7 37 20 SW -
20.04.2018 07:00:00 5,1 1,9 8 5 40 22 S 0,0
20.04.2018 06:00:00 5,2 1,3 8 5 39 21 S 0,0
20.04.2018 05:00:00 5,4 0,9 8 5 38 20 NNE 0,0
20.04.2018 04:00:00 6,3 0,9 8 4 39 21 N 0,0
20.04.2018 03:00:00 6,5 1,1 9 5 40 22 NNE 0,0
20.04.2018 02:00:00 6,7 0,2 12 7 40 22 NNE -
20.04.2018 01:00:00 7,6 -0,7 4 2 42 23 N 0,0
20.04.2018 00:00:00 8,5 0,0 12 7 42 23 WSW 0,0
19.04.2018 23:00:00 8,7 -0,7 8 4 40 22 W 0,0
19.04.2018 22:00:00 10,6 -1,4 5 3 36 20 WNW 0,0
19.04.2018 21:00:00 11,3 -1,4 6 4 24 13 WSW 0,0
19.04.2018 20:00:00 13,1 -1,7 4 2 23 13 WSW -
19.04.2018 19:00:00 13,9 -1,7 5 3 30 16 WSW 0,0
19.04.2018 18:00:00 14,5 -1,2 8 4 33 18 SW 0,0
19.04.2018 17:00:00 14,8 -1,7 1 1 37 20 W 0,0
19.04.2018 16:00:00 14,4 -2,2 6 3 37 20 SW 0,0
19.04.2018 15:00:00 14,0 -2,5 5 3 42 23 SW 0,0
19.04.2018 14:00:00 14,4 -2,2 3 2 42 23 SW -
19.04.2018 13:00:00 13,2 -2,5 7 4 44 24 WSW 0,0
19.04.2018 12:00:00 12,2 -1,4 4 2 45 24 W 0,0
19.04.2018 11:00:00 11,4 -1,7 3 2 42 23 WNW 0,0
19.04.2018 10:00:00 10,6 -1,7 4 2 40 21 NW 0,0
19.04.2018 09:00:00 9,4 -2,0 7 4 32 18 NNW 0,0
19.04.2018 08:00:00 6,7 -2,2 9 5 35 19 NNW -
19.04.2018 07:00:00 6,5 -2,5 12 6 32 18 N 0,0
19.04.2018 06:00:00 6,6 -2,2 6 3 35 19 WNW 0,0
19.04.2018 05:00:00 6,3 -3,0 8 5 37 20 W 0,0
19.04.2018 04:00:00 7,3 -3,3 16 9 42 23 N 0,0
19.04.2018 03:00:00 7,6 -3,6 11 6 41 22 N 0,0
19.04.2018 02:00:00 8,0 -2,7 16 9 36 19 WSW -
19.04.2018 01:00:00 9,6 -1,0 15 8 27 15 WSW 0,0
19.04.2018 00:00:00 10,2 -0,3 4 2 21 12 W 0,0
18.04.2018 23:00:00 11,2 -1,0 3 1 16 9 W 0,0
18.04.2018 22:00:00 11,9 0,6 2 1 20 11 NNW 0,0
18.04.2018 21:00:00 12,5 0,6 1 1 22 12 WNW 0,0
18.04.2018 20:00:00 13,9 1,3 3 2 26 14 W -
18.04.2018 19:00:00 15,2 0,9 3 1 23 12 N 0,0
18.04.2018 18:00:00 15,6 0,2 6 3 27 14 WSW 0,0
18.04.2018 17:00:00 15,2 -0,3 4 2 36 19 WSW 0,0
18.04.2018 16:00:00 15,7 1,1 3 2 35 19 WNW 0,0
18.04.2018 15:00:00 15,2 1,3 13 7 40 22 WSW 0,0
18.04.2018 14:00:00 15,2 1,3 18 10 40 21 SW -
18.04.2018 13:00:00 13,3 1,7 16 9 40 21 WSW 0,0
18.04.2018 12:00:00 13,0 2,3 21 12 37 20 SW 0,0
18.04.2018 11:00:00 11,9 1,5 19 10 36 20 SW 0,0
18.04.2018 10:00:00 11,6 0,9 7 4 34 19 N 0,0

tt = Température de l'air
td = dewpoint
ff = Vitesse du vent
fx = gusts
dd = Direction du vent
rr = Quantités de précipitations

stations d'obs. à proximité